sensor_id;sensor_type;location;lat;lon;timestamp;pressure;altitude;pressure_sealevel;temperature;humidity
6389;BME280;3227;42.654;23.360;2023-07-13T00:01:47;94710.75;;;25.25;55.12
6389;BME280;3227;42.654;23.360;2023-07-13T00:04:16;94698.00;;;25.19;54.75
6389;BME280;3227;42.654;23.360;2023-07-13T00:06:44;94704.31;;;25.15;54.86
6389;BME280;3227;42.654;23.360;2023-07-13T00:09:11;94697.63;;;25.09;55.40
6389;BME280;3227;42.654;23.360;2023-07-13T00:11:39;94699.31;;;25.10;54.71
6389;BME280;3227;42.654;23.360;2023-07-13T00:14:06;94702.03;;;25.09;55.78
6389;BME280;3227;42.654;23.360;2023-07-13T00:16:35;94696.78;;;25.09;55.94
6389;BME280;3227;42.654;23.360;2023-07-13T00:19:02;94694.09;;;25.10;55.83
6389;BME280;3227;42.654;23.360;2023-07-13T00:21:29;94693.38;;;25.07;55.42
6389;BME280;3227;42.654;23.360;2023-07-13T00:23:56;94686.09;;;24.96;56.00
6389;BME280;3227;42.654;23.360;2023-07-13T00:26:23;94700.66;;;25.01;57.00
6389;BME280;3227;42.654;23.360;2023-07-13T00:28:50;94691.25;;;24.97;57.09
6389;BME280;3227;42.654;23.360;2023-07-13T00:31:17;94695.41;;;25.01;56.49
6389;BME280;3227;42.654;23.360;2023-07-13T00:33:45;94691.03;;;25.02;56.42
6389;BME280;3227;42.654;23.360;2023-07-13T00:36:12;94682.91;;;25.07;55.19
6389;BME280;3227;42.654;23.360;2023-07-13T00:38:40;94683.59;;;25.10;54.34
6389;BME280;3227;42.654;23.360;2023-07-13T00:41:06;94647.63;;;24.96;53.67
6389;BME280;3227;42.654;23.360;2023-07-13T00:43:33;94685.09;;;25.14;55.18
6389;BME280;3227;42.654;23.360;2023-07-13T00:46:22;94685.72;;;25.04;55.23
6389;BME280;3227;42.654;23.360;2023-07-13T00:48:53;94685.63;;;24.88;55.32
6389;BME280;3227;42.654;23.360;2023-07-13T00:51:27;94625.25;;;24.41;55.58
6389;BME280;3227;42.654;23.360;2023-07-13T00:53:57;94687.78;;;24.80;56.46
6389;BME280;3227;42.654;23.360;2023-07-13T00:56:26;94687.13;;;24.76;57.27
6389;BME280;3227;42.654;23.360;2023-07-13T00:58:54;94679.75;;;24.67;57.80
6389;BME280;3227;42.654;23.360;2023-07-13T01:01:21;94679.16;;;24.62;57.75
6389;BME280;3227;42.654;23.360;2023-07-13T01:03:48;94680.94;;;24.61;57.68
6389;BME280;3227;42.654;23.360;2023-07-13T01:06:17;94680.81;;;24.63;56.71
6389;BME280;3227;42.654;23.360;2023-07-13T01:08:43;94681.25;;;24.71;56.92
6389;BME280;3227;42.654;23.360;2023-07-13T01:11:09;94669.34;;;24.65;57.12
6389;BME280;3227;42.654;23.360;2023-07-13T01:13:36;94671.44;;;24.59;56.70
6389;BME280;3227;42.654;23.360;2023-07-13T01:16:11;94670.00;;;24.53;57.13
6389;BME280;3227;42.654;23.360;2023-07-13T01:18:39;94670.06;;;24.52;58.22
6389;BME280;3227;42.654;23.360;2023-07-13T01:21:07;94678.41;;;24.43;57.96
6389;BME280;3227;42.654;23.360;2023-07-13T01:23:34;94676.63;;;24.43;58.03
6389;BME280;3227;42.654;23.360;2023-07-13T01:26:01;94675.78;;;24.43;57.87
6389;BME280;3227;42.654;23.360;2023-07-13T01:28:28;94677.63;;;24.41;58.24
6389;BME280;3227;42.654;23.360;2023-07-13T01:30:57;94677.03;;;24.36;58.60
6389;BME280;3227;42.654;23.360;2023-07-13T01:33:25;94668.78;;;24.26;58.23
6389;BME280;3227;42.654;23.360;2023-07-13T01:35:52;94681.94;;;24.24;57.95
6389;BME280;3227;42.654;23.360;2023-07-13T01:38:22;94673.97;;;24.27;58.15
6389;BME280;3227;42.654;23.360;2023-07-13T01:40:49;94673.03;;;24.29;58.03
6389;BME280;3227;42.654;23.360;2023-07-13T01:43:16;94685.19;;;24.30;58.26
6389;BME280;3227;42.654;23.360;2023-07-13T01:45:44;94690.59;;;24.26;58.62
6389;BME280;3227;42.654;23.360;2023-07-13T01:48:11;94653.75;;;24.12;58.51
6389;BME280;3227;42.654;23.360;2023-07-13T01:50:38;94672.25;;;24.26;57.99
6389;BME280;3227;42.654;23.360;2023-07-13T01:53:05;94667.09;;;24.25;57.94
6389;BME280;3227;42.654;23.360;2023-07-13T01:55:34;94674.09;;;24.24;57.65
6389;BME280;3227;42.654;23.360;2023-07-13T01:58:01;94669.78;;;24.23;58.66
6389;BME280;3227;42.654;23.360;2023-07-13T02:00:28;94663.63;;;24.24;58.00
6389;BME280;3227;42.654;23.360;2023-07-13T02:02:55;94621.56;;;23.93;57.81
6389;BME280;3227;42.654;23.360;2023-07-13T02:05:22;94671.47;;;24.24;57.34
6389;BME280;3227;42.654;23.360;2023-07-13T02:07:49;94672.31;;;24.25;58.00
6389;BME280;3227;42.654;23.360;2023-07-13T02:10:16;94674.25;;;24.21;58.50
6389;BME280;3227;42.654;23.360;2023-07-13T02:12:44;94656.66;;;24.06;59.41
6389;BME280;3227;42.654;23.360;2023-07-13T02:15:11;94633.41;;;23.83;59.05
6389;BME280;3227;42.654;23.360;2023-07-13T02:17:38;94663.19;;;23.98;59.27
6389;BME280;3227;42.654;23.360;2023-07-13T02:20:06;94679.31;;;24.07;59.61
6389;BME280;3227;42.654;23.360;2023-07-13T02:22:33;94675.22;;;24.02;59.71
6389;BME280;3227;42.654;23.360;2023-07-13T02:25:00;94677.00;;;24.01;60.60
6389;BME280;3227;42.654;23.360;2023-07-13T02:27:27;94673.59;;;23.99;60.86
6389;BME280;3227;42.654;23.360;2023-07-13T02:29:55;94683.78;;;23.88;60.87
6389;BME280;3227;42.654;23.360;2023-07-13T02:32:22;94686.53;;;23.85;62.42
6389;BME280;3227;42.654;23.360;2023-07-13T02:34:50;94684.13;;;23.63;61.77
6389;BME280;3227;42.654;23.360;2023-07-13T02:37:17;94678.19;;;23.60;62.58
6389;BME280;3227;42.654;23.360;2023-07-13T02:39:44;94696.72;;;23.55;62.76
6389;BME280;3227;42.654;23.360;2023-07-13T02:42:11;94679.47;;;23.51;63.46
6389;BME280;3227;42.654;23.360;2023-07-13T02:44:37;94685.41;;;23.55;62.35
6389;BME280;3227;42.654;23.360;2023-07-13T02:47:06;94682.44;;;23.62;61.78
6389;BME280;3227;42.654;23.360;2023-07-13T02:49:33;94677.03;;;23.65;61.88
6389;BME280;3227;42.654;23.360;2023-07-13T02:52:00;94679.72;;;23.64;61.90
6389;BME280;3227;42.654;23.360;2023-07-13T02:54:27;94685.09;;;23.61;62.44
6389;BME280;3227;42.654;23.360;2023-07-13T02:56:53;94676.00;;;23.50;62.54
6389;BME280;3227;42.654;23.360;2023-07-13T02:59:20;94671.25;;;23.59;62.66
6389;BME280;3227;42.654;23.360;2023-07-13T03:01:47;94689.56;;;23.59;61.89
6389;BME280;3227;42.654;23.360;2023-07-13T03:04:15;94689.50;;;23.60;62.34
6389;BME280;3227;42.654;23.360;2023-07-13T03:06:45;94688.63;;;23.60;62.17
6389;BME280;3227;42.654;23.360;2023-07-13T03:09:11;94691.72;;;23.68;62.14
6389;BME280;3227;42.654;23.360;2023-07-13T03:11:39;94692.34;;;23.73;62.54
6389;BME280;3227;42.654;23.360;2023-07-13T03:14:06;94699.22;;;23.75;62.61
6389;BME280;3227;42.654;23.360;2023-07-13T03:16:33;94687.44;;;23.84;62.31
6389;BME280;3227;42.654;23.360;2023-07-13T03:19:00;94695.31;;;24.01;62.00
6389;BME280;3227;42.654;23.360;2023-07-13T03:21:28;94700.81;;;24.31;61.13
6389;BME280;3227;42.654;23.360;2023-07-13T03:23:55;94691.59;;;24.74;59.97
6389;BME280;3227;42.654;23.360;2023-07-13T03:26:22;94699.84;;;25.17;57.77
6389;BME280;3227;42.654;23.360;2023-07-13T03:28:49;94693.78;;;25.63;56.84
6389;BME280;3227;42.654;23.360;2023-07-13T03:31:17;94696.88;;;26.01;55.07
6389;BME280;3227;42.654;23.360;2023-07-13T03:33:45;94702.72;;;26.36;54.03
6389;BME280;3227;42.654;23.360;2023-07-13T03:36:14;94706.72;;;26.86;52.10
6389;BME280;3227;42.654;23.360;2023-07-13T03:38:46;94699.72;;;27.29;51.16
6389;BME280;3227;42.654;23.360;2023-07-13T03:41:13;94711.59;;;27.77;48.75
6389;BME280;3227;42.654;23.360;2023-07-13T03:43:40;94614.72;;;27.55;47.76
6389;BME280;3227;42.654;23.360;2023-07-13T03:46:07;94711.66;;;28.56;46.32
6389;BME280;3227;42.654;23.360;2023-07-13T03:48:34;94706.97;;;29.12;45.34
6389;BME280;3227;42.654;23.360;2023-07-13T03:51:01;94698.25;;;29.61;43.84
6389;BME280;3227;42.654;23.360;2023-07-13T03:53:28;94699.41;;;30.17;42.38
6389;BME280;3227;42.654;23.360;2023-07-13T03:55:56;94696.88;;;30.74;40.87
6389;BME280;3227;42.654;23.360;2023-07-13T03:58:29;94699.38;;;31.11;40.25
6389;BME280;3227;42.654;23.360;2023-07-13T04:00:57;94697.69;;;31.54;39.76
6389;BME280;3227;42.654;23.360;2023-07-13T04:03:25;94708.97;;;31.90;38.89
6389;BME280;3227;42.654;23.360;2023-07-13T04:05:54;94708.66;;;32.26;38.09
6389;BME280;3227;42.654;23.360;2023-07-13T04:08:25;94698.59;;;32.41;36.85
6389;BME280;3227;42.654;23.360;2023-07-13T04:10:52;94710.75;;;32.75;36.30
6389;BME280;3227;42.654;23.360;2023-07-13T04:13:20;94701.00;;;33.06;35.62
6389;BME280;3227;42.654;23.360;2023-07-13T04:15:47;94703.78;;;33.56;35.09
6389;BME280;3227;42.654;23.360;2023-07-13T04:18:13;94703.94;;;34.04;34.31
6389;BME280;3227;42.654;23.360;2023-07-13T04:20:40;94706.84;;;34.41;34.16
6389;BME280;3227;42.654;23.360;2023-07-13T04:23:07;94712.44;;;34.57;33.07
6389;BME280;3227;42.654;23.360;2023-07-13T04:25:34;94718.84;;;34.35;34.01
6389;BME280;3227;42.654;23.360;2023-07-13T04:28:03;94659.16;;;33.50;34.46
6389;BME280;3227;42.654;23.360;2023-07-13T04:30:31;94726.66;;;33.68;35.56
6389;BME280;3227;42.654;23.360;2023-07-13T04:32:58;94734.22;;;33.42;35.85
6389;BME280;3227;42.654;23.360;2023-07-13T04:35:25;94671.81;;;33.37;35.92
6389;BME280;3227;42.654;23.360;2023-07-13T04:37:52;94719.91;;;34.04;34.93
6389;BME280;3227;42.654;23.360;2023-07-13T04:40:19;94717.19;;;34.44;34.46
6389;BME280;3227;42.654;23.360;2023-07-13T04:42:46;94731.19;;;34.85;33.96
6389;BME280;3227;42.654;23.360;2023-07-13T04:45:14;94725.59;;;34.59;34.53
6389;BME280;3227;42.654;23.360;2023-07-13T04:47:43;94731.47;;;34.62;34.77
6389;BME280;3227;42.654;23.360;2023-07-13T04:50:09;94734.28;;;34.70;33.48
6389;BME280;3227;42.654;23.360;2023-07-13T04:52:37;94732.16;;;34.45;33.76
6389;BME280;3227;42.654;23.360;2023-07-13T04:55:09;94739.84;;;33.79;34.81
6389;BME280;3227;42.654;23.360;2023-07-13T04:57:36;94746.91;;;33.69;34.79
6389;BME280;3227;42.654;23.360;2023-07-13T05:00:03;94747.50;;;34.13;34.32
6389;BME280;3227;42.654;23.360;2023-07-13T05:02:31;94761.31;;;34.85;33.67
6389;BME280;3227;42.654;23.360;2023-07-13T05:05:00;94746.78;;;35.55;32.59
6389;BME280;3227;42.654;23.360;2023-07-13T05:07:27;94752.22;;;36.00;31.45
6389;BME280;3227;42.654;23.360;2023-07-13T05:09:53;94744.63;;;36.05;31.06
6389;BME280;3227;42.654;23.360;2023-07-13T05:12:20;94754.09;;;36.17;30.60
6389;BME280;3227;42.654;23.360;2023-07-13T05:14:47;94759.75;;;36.14;31.04
6389;BME280;3227;42.654;23.360;2023-07-13T05:17:14;94751.00;;;36.22;31.49
6389;BME280;3227;42.654;23.360;2023-07-13T05:19:41;94760.41;;;36.44;30.99
6389;BME280;3227;42.654;23.360;2023-07-13T05:22:10;94763.38;;;36.23;31.90
6389;BME280;3227;42.654;23.360;2023-07-13T05:24:37;94765.38;;;36.39;31.37
6389;BME280;3227;42.654;23.360;2023-07-13T05:27:04;94762.56;;;36.58;30.95
6389;BME280;3227;42.654;23.360;2023-07-13T05:29:31;94735.56;;;36.61;31.26
6389;BME280;3227;42.654;23.360;2023-07-13T05:31:58;94706.25;;;36.51;31.11
6389;BME280;3227;42.654;23.360;2023-07-13T05:34:25;94765.41;;;36.92;31.05
6389;BME280;3227;42.654;23.360;2023-07-13T05:36:52;94763.41;;;36.94;31.51
6389;BME280;3227;42.654;23.360;2023-07-13T05:39:20;94742.06;;;36.76;31.08
6389;BME280;3227;42.654;23.360;2023-07-13T05:41:46;94757.31;;;36.84;30.80
6389;BME280;3227;42.654;23.360;2023-07-13T05:44:13;94767.78;;;36.77;30.89
6389;BME280;3227;42.654;23.360;2023-07-13T05:46:40;94770.41;;;36.59;31.43
6389;BME280;3227;42.654;23.360;2023-07-13T05:49:07;94769.81;;;36.48;31.43
6389;BME280;3227;42.654;23.360;2023-07-13T05:51:34;94771.53;;;36.21;31.83
6389;BME280;3227;42.654;23.360;2023-07-13T05:54:00;94762.50;;;35.95;31.86
6389;BME280;3227;42.654;23.360;2023-07-13T05:56:29;94766.41;;;35.73;32.30
6389;BME280;3227;42.654;23.360;2023-07-13T05:58:56;94720.53;;;35.23;33.08
6389;BME280;3227;42.654;23.360;2023-07-13T06:01:22;94769.97;;;35.45;32.82
6389;BME280;3227;42.654;23.360;2023-07-13T06:03:49;94764.66;;;35.35;32.68
6389;BME280;3227;42.654;23.360;2023-07-13T06:06:16;94759.31;;;35.35;33.00
6389;BME280;3227;42.654;23.360;2023-07-13T06:08:43;94755.00;;;35.15;32.60
6389;BME280;3227;42.654;23.360;2023-07-13T06:11:14;94752.09;;;34.80;33.06
6389;BME280;3227;42.654;23.360;2023-07-13T06:13:43;94753.47;;;34.55;33.99
6389;BME280;3227;42.654;23.360;2023-07-13T06:16:10;94759.00;;;34.23;34.12
6389;BME280;3227;42.654;23.360;2023-07-13T06:18:37;94761.75;;;33.72;35.78
6389;BME280;3227;42.654;23.360;2023-07-13T06:21:08;94768.31;;;33.68;36.19
6389;BME280;3227;42.654;23.360;2023-07-13T06:23:35;94731.44;;;33.44;35.28
6389;BME280;3227;42.654;23.360;2023-07-13T06:26:02;94762.44;;;33.64;35.87
6389;BME280;3227;42.654;23.360;2023-07-13T06:28:29;94759.66;;;33.45;36.53
6389;BME280;3227;42.654;23.360;2023-07-13T06:30:59;94762.63;;;33.21;37.18
6389;BME280;3227;42.654;23.360;2023-07-13T06:33:26;94761.25;;;33.06;38.35
6389;BME280;3227;42.654;23.360;2023-07-13T06:35:53;94766.22;;;32.78;38.09
6389;BME280;3227;42.654;23.360;2023-07-13T06:38:20;94740.81;;;32.33;38.29
6389;BME280;3227;42.654;23.360;2023-07-13T06:40:47;94753.00;;;32.13;39.60
6389;BME280;3227;42.654;23.360;2023-07-13T06:43:13;94756.13;;;32.29;40.13
6389;BME280;3227;42.654;23.360;2023-07-13T06:45:55;94755.03;;;32.64;39.56
6389;BME280;3227;42.654;23.360;2023-07-13T06:48:24;94741.03;;;32.73;38.82
6389;BME280;3227;42.654;23.360;2023-07-13T06:50:51;94731.75;;;32.67;38.07
6389;BME280;3227;42.654;23.360;2023-07-13T06:53:19;94703.38;;;32.47;37.04
6389;BME280;3227;42.654;23.360;2023-07-13T06:55:47;94751.41;;;32.33;37.89
6389;BME280;3227;42.654;23.360;2023-07-13T06:58:15;94754.06;;;32.33;38.39
6389;BME280;3227;42.654;23.360;2023-07-13T07:00:42;94689.63;;;31.78;39.06
6389;BME280;3227;42.654;23.360;2023-07-13T07:03:09;94740.41;;;31.94;39.17
6389;BME280;3227;42.654;23.360;2023-07-13T07:05:37;94749.66;;;32.11;39.65
6389;BME280;3227;42.654;23.360;2023-07-13T07:08:04;94755.22;;;32.19;39.60
6389;BME280;3227;42.654;23.360;2023-07-13T07:10:31;94764.25;;;32.17;39.52
6389;BME280;3227;42.654;23.360;2023-07-13T07:12:58;94759.31;;;32.01;39.97
6389;BME280;3227;42.654;23.360;2023-07-13T07:15:25;94759.94;;;31.60;39.79
6389;BME280;3227;42.654;23.360;2023-07-13T07:17:52;94750.75;;;31.30;40.98
6389;BME280;3227;42.654;23.360;2023-07-13T07:20:19;94758.81;;;31.40;42.25
6389;BME280;3227;42.654;23.360;2023-07-13T07:22:47;94746.78;;;31.58;42.74
6389;BME280;3227;42.654;23.360;2023-07-13T07:25:14;94754.28;;;31.75;39.94
6389;BME280;3227;42.654;23.360;2023-07-13T07:27:41;94742.47;;;31.80;40.76
6389;BME280;3227;42.654;23.360;2023-07-13T07:30:08;94745.94;;;32.02;41.15
6389;BME280;3227;42.654;23.360;2023-07-13T07:32:35;94751.94;;;32.27;40.36
6389;BME280;3227;42.654;23.360;2023-07-13T07:35:02;94742.41;;;32.24;40.41
6389;BME280;3227;42.654;23.360;2023-07-13T07:37:29;94743.25;;;32.25;40.33
6389;BME280;3227;42.654;23.360;2023-07-13T07:39:57;94734.81;;;32.08;39.80
6389;BME280;3227;42.654;23.360;2023-07-13T07:42:24;94732.53;;;32.04;40.29
6389;BME280;3227;42.654;23.360;2023-07-13T07:44:51;94733.16;;;32.19;41.06
6389;BME280;3227;42.654;23.360;2023-07-13T07:47:18;94727.63;;;32.42;40.91
6389;BME280;3227;42.654;23.360;2023-07-13T07:49:44;94726.34;;;32.69;41.26
6389;BME280;3227;42.654;23.360;2023-07-13T07:52:11;94735.16;;;32.90;39.24
6389;BME280;3227;42.654;23.360;2023-07-13T07:54:38;94734.72;;;32.85;39.28
6389;BME280;3227;42.654;23.360;2023-07-13T07:57:06;94728.94;;;33.01;38.87
6389;BME280;3227;42.654;23.360;2023-07-13T07:59:33;94727.97;;;33.22;39.76
6389;BME280;3227;42.654;23.360;2023-07-13T08:02:00;94715.72;;;33.31;38.31
6389;BME280;3227;42.654;23.360;2023-07-13T08:04:28;94726.03;;;33.24;37.05
6389;BME280;3227;42.654;23.360;2023-07-13T08:06:55;94711.13;;;32.92;38.40
6389;BME280;3227;42.654;23.360;2023-07-13T09:30:23;94710.81;;;33.36;37.63
6389;BME280;3227;42.654;23.360;2023-07-13T09:32:52;94713.09;;;33.41;37.02
6389;BME280;3227;42.654;23.360;2023-07-13T09:35:23;94710.00;;;33.36;37.05
6389;BME280;3227;42.654;23.360;2023-07-13T09:37:53;94701.22;;;33.45;37.55
6389;BME280;3227;42.654;23.360;2023-07-13T09:40:30;94707.16;;;33.58;36.97
6389;BME280;3227;42.654;23.360;2023-07-13T09:43:01;94704.13;;;33.72;37.82
6389;BME280;3227;42.654;23.360;2023-07-13T09:45:33;94706.59;;;33.85;37.22
6389;BME280;3227;42.654;23.360;2023-07-13T09:48:04;94664.09;;;33.64;37.60
6389;BME280;3227;42.654;23.360;2023-07-13T09:50:31;94697.59;;;33.86;37.38
6389;BME280;3227;42.654;23.360;2023-07-13T09:53:00;94689.53;;;33.97;36.51
6389;BME280;3227;42.654;23.360;2023-07-13T09:55:30;94679.03;;;34.05;36.59
6389;BME280;3227;42.654;23.360;2023-07-13T09:57:58;94627.66;;;33.76;35.79
6389;BME280;3227;42.654;23.360;2023-07-13T10:00:32;94677.34;;;34.04;36.77
6389;BME280;3227;42.654;23.360;2023-07-13T10:03:03;94650.69;;;33.66;36.62
6389;BME280;3227;42.654;23.360;2023-07-13T10:05:38;94667.47;;;33.66;36.56
6389;BME280;3227;42.654;23.360;2023-07-13T10:08:05;94659.88;;;33.61;36.27
6389;BME280;3227;42.654;23.360;2023-07-13T10:10:32;94660.72;;;33.62;36.82
6389;BME280;3227;42.654;23.360;2023-07-13T10:13:00;94658.53;;;33.37;37.48
6389;BME280;3227;42.654;23.360;2023-07-13T10:15:31;94666.44;;;32.97;37.58
6389;BME280;3227;42.654;23.360;2023-07-13T10:17:59;94661.53;;;32.92;37.19
6389;BME280;3227;42.654;23.360;2023-07-13T10:20:26;94652.78;;;33.01;36.62
6389;BME280;3227;42.654;23.360;2023-07-13T10:22:58;94657.75;;;33.15;36.84
6389;BME280;3227;42.654;23.360;2023-07-13T10:25:27;94627.34;;;32.99;36.13
6389;BME280;3227;42.654;23.360;2023-07-13T10:28:00;94640.66;;;33.08;36.71
6389;BME280;3227;42.654;23.360;2023-07-13T10:30:34;94647.97;;;33.16;37.03
6389;BME280;3227;42.654;23.360;2023-07-13T10:33:04;94646.06;;;33.28;37.45
6389;BME280;3227;42.654;23.360;2023-07-13T10:35:37;94648.59;;;33.29;36.47
6389;BME280;3227;42.654;23.360;2023-07-13T10:38:07;94641.16;;;33.23;37.70
6389;BME280;3227;42.654;23.360;2023-07-13T10:40:38;94603.78;;;33.15;35.65
6389;BME280;3227;42.654;23.360;2023-07-13T10:43:10;94599.66;;;33.22;36.10
6389;BME280;3227;42.654;23.360;2023-07-13T10:45:45;94632.47;;;33.51;35.97
6389;BME280;3227;42.654;23.360;2023-07-13T10:48:15;94628.16;;;33.60;35.07
6389;BME280;3227;42.654;23.360;2023-07-13T10:50:45;94606.44;;;33.55;34.64
6389;BME280;3227;42.654;23.360;2023-07-13T10:53:20;94603.25;;;33.71;33.81
6389;BME280;3227;42.654;23.360;2023-07-13T10:55:59;94602.75;;;33.86;30.01
6389;BME280;3227;42.654;23.360;2023-07-13T10:58:31;94605.28;;;33.97;27.54
6389;BME280;3227;42.654;23.360;2023-07-13T11:01:03;94594.50;;;33.99;27.98
6389;BME280;3227;42.654;23.360;2023-07-13T11:03:34;94556.03;;;33.84;27.87
6389;BME280;3227;42.654;23.360;2023-07-13T11:06:08;94590.00;;;34.19;26.62
6389;BME280;3227;42.654;23.360;2023-07-13T11:08:37;94587.50;;;34.27;25.88
6389;BME280;3227;42.654;23.360;2023-07-13T11:11:34;94575.50;;;34.32;26.85
6389;BME280;3227;42.654;23.360;2023-07-13T11:14:02;94546.06;;;34.15;26.95
6389;BME280;3227;42.654;23.360;2023-07-13T11:16:43;94579.50;;;34.46;26.90
6389;BME280;3227;42.654;23.360;2023-07-13T11:19:39;94571.25;;;34.59;27.68
6389;BME280;3227;42.654;23.360;2023-07-13T11:22:24;94566.31;;;34.64;26.93
6389;BME280;3227;42.654;23.360;2023-07-13T11:24:57;94561.00;;;34.73;26.49
6389;BME280;3227;42.654;23.360;2023-07-13T11:27:42;94562.50;;;34.76;26.64
6389;BME280;3227;42.654;23.360;2023-07-13T11:30:25;94558.00;;;34.86;29.06
6389;BME280;3227;42.654;23.360;2023-07-13T11:33:12;94559.28;;;34.82;32.04
6389;BME280;3227;42.654;23.360;2023-07-13T11:35:45;94563.56;;;34.93;32.38
6389;BME280;3227;42.654;23.360;2023-07-13T11:38:16;94562.59;;;34.94;31.82
6389;BME280;3227;42.654;23.360;2023-07-13T11:40:45;94564.13;;;34.96;31.56
6389;BME280;3227;42.654;23.360;2023-07-13T11:43:14;94563.00;;;34.99;31.04
6389;BME280;3227;42.654;23.360;2023-07-13T11:45:42;94558.75;;;35.06;29.95
6389;BME280;3227;42.654;23.360;2023-07-13T11:48:21;94552.59;;;35.05;28.01
6389;BME280;3227;42.654;23.360;2023-07-13T11:50:55;94566.44;;;35.09;27.28
6389;BME280;3227;42.654;23.360;2023-07-13T11:53:26;94561.13;;;35.09;28.80
6389;BME280;3227;42.654;23.360;2023-07-13T11:55:54;94559.00;;;35.13;27.42
6389;BME280;3227;42.654;23.360;2023-07-13T11:58:24;94544.56;;;35.15;26.84
6389;BME280;3227;42.654;23.360;2023-07-13T12:00:51;94546.91;;;35.18;26.85
6389;BME280;3227;42.654;23.360;2023-07-13T12:03:22;94549.19;;;35.23;27.17
6389;BME280;3227;42.654;23.360;2023-07-13T12:06:01;94538.75;;;35.29;26.61
6389;BME280;3227;42.654;23.360;2023-07-13T12:08:28;94530.47;;;35.32;26.78
6389;BME280;3227;42.654;23.360;2023-07-13T12:11:13;94531.41;;;35.41;26.71
6389;BME280;3227;42.654;23.360;2023-07-13T12:13:41;94535.72;;;35.42;27.36
6389;BME280;3227;42.654;23.360;2023-07-13T12:16:12;94529.72;;;35.40;27.05
6389;BME280;3227;42.654;23.360;2023-07-13T12:18:43;94526.09;;;35.41;26.69
6389;BME280;3227;42.654;23.360;2023-07-13T12:21:16;94522.25;;;35.43;26.53
6389;BME280;3227;42.654;23.360;2023-07-13T12:23:45;94516.63;;;35.46;26.62
6389;BME280;3227;42.654;23.360;2023-07-13T12:26:15;94490.81;;;35.29;26.09
6389;BME280;3227;42.654;23.360;2023-07-13T12:28:46;94509.78;;;35.44;26.74
6389;BME280;3227;42.654;23.360;2023-07-13T12:31:30;94505.84;;;35.48;26.37
6389;BME280;3227;42.654;23.360;2023-07-13T12:34:06;94510.94;;;35.41;26.77
6389;BME280;3227;42.654;23.360;2023-07-13T12:36:34;94457.78;;;35.13;26.60
6389;BME280;3227;42.654;23.360;2023-07-13T12:39:06;94499.34;;;35.33;27.08
6389;BME280;3227;42.654;23.360;2023-07-13T12:41:39;94481.81;;;35.30;26.97
6389;BME280;3227;42.654;23.360;2023-07-13T12:44:10;94497.97;;;35.46;26.74
6389;BME280;3227;42.654;23.360;2023-07-13T12:46:37;94493.00;;;35.34;26.84
6389;BME280;3227;42.654;23.360;2023-07-13T12:49:07;94490.19;;;35.35;27.16
6389;BME280;3227;42.654;23.360;2023-07-13T12:51:34;94488.78;;;35.41;27.01
6389;BME280;3227;42.654;23.360;2023-07-13T12:54:13;94487.47;;;35.45;28.29
6389;BME280;3227;42.654;23.360;2023-07-13T12:56:41;94485.28;;;35.40;29.50
6389;BME280;3227;42.654;23.360;2023-07-13T12:59:14;94478.19;;;35.31;29.48
6389;BME280;3227;42.654;23.360;2023-07-13T13:01:43;94481.63;;;35.41;29.86
6389;BME280;3227;42.654;23.360;2023-07-13T13:04:11;94473.72;;;35.50;29.72
6389;BME280;3227;42.654;23.360;2023-07-13T13:06:39;94477.34;;;35.48;29.12
6389;BME280;3227;42.654;23.360;2023-07-13T13:09:11;94481.53;;;35.51;29.20
6389;BME280;3227;42.654;23.360;2023-07-13T13:11:38;94470.09;;;35.59;29.66
6389;BME280;3227;42.654;23.360;2023-07-13T13:14:05;94475.69;;;35.65;29.10
6389;BME280;3227;42.654;23.360;2023-07-13T13:16:33;94457.47;;;35.61;28.52
6389;BME280;3227;42.654;23.360;2023-07-13T13:19:10;94464.19;;;35.65;28.45
6389;BME280;3227;42.654;23.360;2023-07-13T13:21:39;94456.47;;;35.62;28.43
6389;BME280;3227;42.654;23.360;2023-07-13T13:24:11;94457.16;;;35.64;28.22
6389;BME280;3227;42.654;23.360;2023-07-13T13:26:38;94460.47;;;35.58;28.78
6389;BME280;3227;42.654;23.360;2023-07-13T13:29:13;94458.84;;;35.65;28.78
6389;BME280;3227;42.654;23.360;2023-07-13T13:31:40;94409.97;;;35.38;28.57
6389;BME280;3227;42.654;23.360;2023-07-13T13:34:09;94426.09;;;35.55;28.75
6389;BME280;3227;42.654;23.360;2023-07-13T13:36:36;94455.56;;;35.71;27.74
6389;BME280;3227;42.654;23.360;2023-07-13T13:39:18;94445.88;;;35.70;28.87
6389;BME280;3227;42.654;23.360;2023-07-13T13:41:46;94452.84;;;35.80;28.69
6389;BME280;3227;42.654;23.360;2023-07-13T13:44:14;94452.69;;;35.82;27.78
6389;BME280;3227;42.654;23.360;2023-07-13T13:46:42;94441.63;;;35.77;27.68
6389;BME280;3227;42.654;23.360;2023-07-13T13:49:14;94449.63;;;35.77;28.20
6389;BME280;3227;42.654;23.360;2023-07-13T13:51:42;94450.31;;;35.79;28.18
6389;BME280;3227;42.654;23.360;2023-07-13T13:54:12;94445.00;;;35.79;27.81
6389;BME280;3227;42.654;23.360;2023-07-13T13:56:42;94443.53;;;35.84;28.26
6389;BME280;3227;42.654;23.360;2023-07-13T13:59:09;94450.25;;;35.89;28.29
6389;BME280;3227;42.654;23.360;2023-07-13T14:01:36;94442.59;;;35.94;28.75
6389;BME280;3227;42.654;23.360;2023-07-13T14:04:04;94430.78;;;35.96;28.46
6389;BME280;3227;42.654;23.360;2023-07-13T14:06:32;94434.44;;;35.95;27.85
6389;BME280;3227;42.654;23.360;2023-07-13T14:09:00;94438.84;;;36.04;28.01
6389;BME280;3227;42.654;23.360;2023-07-13T14:11:30;94433.81;;;36.01;27.13
6389;BME280;3227;42.654;23.360;2023-07-13T14:13:59;94436.22;;;35.87;26.70
6389;BME280;3227;42.654;23.360;2023-07-13T14:16:30;94389.63;;;35.37;27.62
6389;BME280;3227;42.654;23.360;2023-07-13T14:18:58;94391.09;;;35.32;27.15
6389;BME280;3227;42.654;23.360;2023-07-13T14:21:27;94437.28;;;35.58;26.93
6389;BME280;3227;42.654;23.360;2023-07-13T14:23:54;94424.13;;;35.57;27.15
6389;BME280;3227;42.654;23.360;2023-07-13T14:26:23;94428.84;;;35.63;27.52
6389;BME280;3227;42.654;23.360;2023-07-13T14:28:54;94430.19;;;35.67;27.01
6389;BME280;3227;42.654;23.360;2023-07-13T14:31:22;94391.16;;;35.40;26.79
6389;BME280;3227;42.654;23.360;2023-07-13T14:33:50;94422.63;;;35.72;26.43
6389;BME280;3227;42.654;23.360;2023-07-13T14:36:25;94423.50;;;35.80;26.69
6389;BME280;3227;42.654;23.360;2023-07-13T14:38:53;94382.00;;;35.60;26.71
6389;BME280;3227;42.654;23.360;2023-07-13T14:41:20;94419.09;;;35.89;26.21